Time;durP1;ratioP1;P1;durP2;ratioP2;P2;SDS_P1;SDS_P2;PMS_P1;PMS_P2;Temp;Humidity;BMP_temperature;BMP_pressure;BME280_temperature;BME280_humidity;BME280_pressure;Samples;Min_cycle;Max_cycle;Signal;HPM_P1;HPM_P2
2022/03/15 00:20:32;;;;;;;19.83;14.57;;;;;;;;;;4531699;29;20113;-63
2022/03/15 00:22:59;;;;;;;23.65;16.92;;;;;;;;;;4140986;34;20104;-63
2022/03/15 00:25:25;;;;;;;20.52;17.62;;;;;;;;;;4147143;34;20139;-63
2022/03/15 00:27:52;;;;;;;22.80;18.60;;;;;;;;;;4136512;34;20191;-63
2022/03/15 00:30:19;;;;;;;20.83;17.45;;;;;;;;;;4132895;34;20530;-63
2022/03/15 00:32:45;;;;;;;19.48;16.70;;;;;;;;;;4132074;34;20111;-59
2022/03/15 00:35:18;;;;;;;18.12;15.80;;;;;;;;;;4122479;34;20115;-59
2022/03/15 00:37:45;;;;;;;18.42;15.35;;;;;;;;;;4121826;34;20586;-59
2022/03/15 00:40:13;;;;;;;15.82;14.02;;;;;;;;;;4134314;34;20122;-59
2022/03/15 00:42:39;;;;;;;14.73;13.23;;;;;;;;;;4135617;34;20202;-59
2022/03/15 00:45:07;;;;;;;14.55;13.15;;;;;;;;;;4134603;34;20126;-62
2022/03/15 00:47:33;;;;;;;15.68;13.95;;;;;;;;;;4122988;34;20188;-59
2022/03/15 00:49:59;;;;;;;16.52;14.63;;;;;;;;;;4135596;34;20095;-59
2022/03/15 00:52:25;;;;;;;17.75;15.35;;;;;;;;;;4135775;34;20562;-59
2022/03/15 00:54:51;;;;;;;15.82;13.82;;;;;;;;;;4135597;34;20123;-59
2022/03/15 00:57:18;;;;;;;15.40;13.80;;;;;;;;;;4131764;34;20508;-60
2022/03/15 00:59:44;;;;;;;15.95;14.35;;;;;;;;;;4120794;34;20208;-59
2022/03/15 01:02:10;;;;;;;13.90;12.37;;;;;;;;;;4123351;34;20546;-59
2022/03/15 01:04:36;;;;;;;14.87;13.40;;;;;;;;;;4124160;34;20104;-59
2022/03/15 01:07:02;;;;;;;15.23;13.30;;;;;;;;;;4124176;34;20211;-59
2022/03/15 01:09:28;;;;;;;15.20;13.70;;;;;;;;;;4124379;34;20111;-59
2022/03/15 01:11:54;;;;;;;15.00;12.77;;;;;;;;;;4124131;34;20210;-59
2022/03/15 01:14:20;;;;;;;14.82;12.30;;;;;;;;;;4133953;34;20185;-60
2022/03/15 01:16:46;;;;;;;18.80;14.15;;;;;;;;;;4124011;34;20160;-60
2022/03/15 01:19:12;;;;;;;16.85;13.85;;;;;;;;;;4124222;34;20119;-60
2022/03/15 01:21:39;;;;;;;17.87;14.10;;;;;;;;;;4124081;34;20098;-60
2022/03/15 01:24:06;;;;;;;14.55;12.95;;;;;;;;;;4136922;34;20092;-60
2022/03/15 01:26:33;;;;;;;13.75;12.32;;;;;;;;;;4136220;34;20123;-59
2022/03/15 01:29:02;;;;;;;14.55;12.88;;;;;;;;;;4137415;34;20207;-60
2022/03/15 01:31:28;;;;;;;14.05;12.65;;;;;;;;;;4124768;34;20519;-59
2022/03/15 01:33:54;;;;;;;15.00;13.40;;;;;;;;;;4137482;34;20107;-60
2022/03/15 01:36:20;;;;;;;15.93;13.27;;;;;;;;;;4137345;34;20570;-59
2022/03/15 01:38:47;;;;;;;14.43;12.32;;;;;;;;;;4137291;34;20119;-60
2022/03/15 01:41:13;;;;;;;14.43;12.43;;;;;;;;;;4137556;34;20131;-59
2022/03/15 01:43:40;;;;;;;13.50;11.85;;;;;;;;;;4137271;34;20527;-60
2022/03/15 01:46:07;;;;;;;13.93;12.37;;;;;;;;;;4136079;34;20123;-59
2022/03/15 01:48:33;;;;;;;14.75;12.75;;;;;;;;;;4137242;34;20510;-59
2022/03/15 01:50:59;;;;;;;13.30;11.93;;;;;;;;;;4136033;34;20088;-60
2022/03/15 01:53:26;;;;;;;14.43;12.50;;;;;;;;;;4137529;34;20115;-61
2022/03/15 01:55:52;;;;;;;14.35;12.95;;;;;;;;;;4137644;34;20128;-61
2022/03/15 01:58:18;;;;;;;15.57;13.30;;;;;;;;;;4137121;34;20138;-61
2022/03/15 02:00:45;;;;;;;17.62;13.65;;;;;;;;;;4137225;34;20135;-61
2022/03/15 02:03:11;;;;;;;15.50;13.00;;;;;;;;;;4137385;34;20905;-61
2022/03/15 02:05:37;;;;;;;14.38;12.90;;;;;;;;;;4137240;34;20119;-61
2022/03/15 02:08:11;;;;;;;16.87;13.73;;;;;;;;;;4135820;34;20198;-61
2022/03/15 02:10:37;;;;;;;15.13;13.18;;;;;;;;;;4135810;34;20116;-60
2022/03/15 02:13:03;;;;;;;15.38;12.77;;;;;;;;;;4136575;34;20112;-62
2022/03/15 02:15:29;;;;;;;15.50;13.48;;;;;;;;;;4137617;34;20108;-60
2022/03/15 02:17:55;;;;;;;14.65;13.15;;;;;;;;;;4137711;34;20107;-61
2022/03/15 02:20:21;;;;;;;15.50;12.40;;;;;;;;;;4135702;34;20111;-61
2022/03/15 02:22:47;;;;;;;14.35;12.85;;;;;;;;;;4136875;34;20190;-61
2022/03/15 02:25:13;;;;;;;16.55;12.90;;;;;;;;;;4136987;34;20088;-61
2022/03/15 02:27:39;;;;;;;14.98;11.65;;;;;;;;;;4124438;34;20088;-61
2022/03/15 02:30:06;;;;;;;12.05;10.85;;;;;;;;;;4141896;34;20181;-62
2022/03/15 02:32:33;;;;;;;13.48;11.88;;;;;;;;;;4139278;34;20084;-61
2022/03/15 02:34:59;;;;;;;12.43;11.23;;;;;;;;;;4147344;34;20122;-62
2022/03/15 02:37:25;;;;;;;12.60;11.38;;;;;;;;;;4150421;34;20134;-61
2022/03/15 02:39:51;;;;;;;13.77;12.05;;;;;;;;;;4148606;34;20484;-62
2022/03/15 02:42:18;;;;;;;12.68;11.45;;;;;;;;;;4143186;34;20524;-61
2022/03/15 02:44:44;;;;;;;13.60;11.25;;;;;;;;;;4136974;34;20127;-62
2022/03/15 02:47:10;;;;;;;14.52;12.07;;;;;;;;;;4122215;34;20145;-60
2022/03/15 02:49:36;;;;;;;12.73;11.30;;;;;;;;;;4110549;34;20179;-60
2022/03/15 02:52:02;;;;;;;15.02;11.30;;;;;;;;;;4123239;34;20130;-59
2022/03/15 02:54:28;;;;;;;13.73;12.27;;;;;;;;;;4111200;34;20128;-60
2022/03/15 02:56:54;;;;;;;12.18;10.93;;;;;;;;;;4121904;34;20502;-60
2022/03/15 02:59:20;;;;;;;12.15;10.65;;;;;;;;;;4110956;34;20112;-60
2022/03/15 03:01:48;;;;;;;15.10;10.02;;;;;;;;;;4121843;34;20293;-62
2022/03/15 03:04:15;;;;;;;12.15;10.35;;;;;;;;;;4123303;34;20187;-61
2022/03/15 03:06:42;;;;;;;11.25;10.10;;;;;;;;;;4110987;34;20307;-61
2022/03/15 03:09:09;;;;;;;11.95;10.05;;;;;;;;;;4111107;34;20118;-61
2022/03/15 03:11:35;;;;;;;11.68;10.20;;;;;;;;;;4110534;34;20213;-60
2022/03/15 03:14:02;;;;;;;13.55;10.57;;;;;;;;;;4123257;34;20266;-61
2022/03/15 03:16:29;;;;;;;11.45;10.25;;;;;;;;;;4123020;34;20115;-61
2022/03/15 03:18:58;;;;;;;10.90;9.90;;;;;;;;;;4121779;34;20096;-61
2022/03/15 03:21:26;;;;;;;11.52;10.32;;;;;;;;;;4099620;34;20132;-60
2022/03/15 03:23:53;;;;;;;11.57;10.45;;;;;;;;;;4133479;34;20462;-60
2022/03/15 03:26:21;;;;;;;11.27;9.27;;;;;;;;;;4136358;34;20118;-59
2022/03/15 03:28:47;;;;;;;9.95;8.88;;;;;;;;;;4136276;34;20104;-61
2022/03/15 03:31:14;;;;;;;10.85;8.82;;;;;;;;;;4131933;34;20528;-61
2022/03/15 03:33:40;;;;;;;10.07;8.70;;;;;;;;;;4123687;34;20665;-61
2022/03/15 03:36:06;;;;;;;9.77;8.85;;;;;;;;;;4113169;34;20111;-61
2022/03/15 03:38:33;;;;;;;9.07;7.95;;;;;;;;;;4136225;34;20141;-61
2022/03/15 03:40:59;;;;;;;9.45;8.45;;;;;;;;;;4124081;34;20119;-61
2022/03/15 03:43:25;;;;;;;9.77;7.50;;;;;;;;;;4134724;34;20485;-61
2022/03/15 03:45:51;;;;;;;10.25;8.38;;;;;;;;;;4123491;34;20116;-61
2022/03/15 03:48:17;;;;;;;8.27;7.37;;;;;;;;;;4131044;34;20107;-58
2022/03/15 03:50:43;;;;;;;11.52;7.80;;;;;;;;;;4134495;34;20119;-60
2022/03/15 03:53:10;;;;;;;8.85;7.03;;;;;;;;;;4135866;34;20219;-61
2022/03/15 03:55:36;;;;;;;8.30;7.40;;;;;;;;;;4122802;34;20611;-61
2022/03/15 03:58:02;;;;;;;9.02;7.20;;;;;;;;;;4110205;34;20116;-61
2022/03/15 04:00:29;;;;;;;9.07;7.60;;;;;;;;;;4110996;34;20441;-59
2022/03/15 04:03:00;;;;;;;8.77;6.53;;;;;;;;;;4121642;34;20092;-60
2022/03/15 04:05:28;;;;;;;10.35;7.32;;;;;;;;;;4145399;34;20110;-60
2022/03/15 04:07:55;;;;;;;8.35;6.68;;;;;;;;;;4136029;34;20163;-59
2022/03/15 04:10:21;;;;;;;8.68;6.90;;;;;;;;;;4135973;34;20123;-60
2022/03/15 04:12:47;;;;;;;7.78;6.90;;;;;;;;;;4135953;34;20115;-60
2022/03/15 04:15:14;;;;;;;8.45;7.20;;;;;;;;;;4136028;34;20214;-59
2022/03/15 04:17:40;;;;;;;7.78;6.65;;;;;;;;;;4134510;34;20111;-60
2022/03/15 04:20:06;;;;;;;8.02;7.22;;;;;;;;;;4133712;34;20162;-59
2022/03/15 04:22:32;;;;;;;9.25;7.47;;;;;;;;;;4135637;34;20108;-60
2022/03/15 04:24:58;;;;;;;8.45;7.28;;;;;;;;;;4129995;34;20236;-61
2022/03/15 04:27:25;;;;;;;9.65;7.10;;;;;;;;;;4122461;34;20123;-60
2022/03/15 04:29:51;;;;;;;8.45;6.93;;;;;;;;;;4122260;34;20171;-62
2022/03/15 04:32:18;;;;;;;7.85;6.80;;;;;;;;;;4136765;34;20113;-63
2022/03/15 04:34:44;;;;;;;8.55;6.80;;;;;;;;;;4136786;34;20214;-62
2022/03/15 04:37:10;;;;;;;10.05;6.95;;;;;;;;;;4148716;34;20127;-63
2022/03/15 04:39:36;;;;;;;7.45;6.47;;;;;;;;;;4149756;34;20436;-63
2022/03/15 04:42:05;;;;;;;9.98;7.43;;;;;;;;;;4138820;34;20536;-63
2022/03/15 04:44:31;;;;;;;9.77;7.68;;;;;;;;;;4151114;34;20114;-63
2022/03/15 04:46:57;;;;;;;10.10;7.62;;;;;;;;;;4149978;34;20104;-63
2022/03/15 04:49:24;;;;;;;8.40;6.68;;;;;;;;;;4151221;34;20214;-63
2022/03/15 04:51:50;;;;;;;8.40;6.95;;;;;;;;;;4127624;34;20210;-61
2022/03/15 04:54:16;;;;;;;7.68;6.78;;;;;;;;;;4151287;34;20265;-61
2022/03/15 04:56:43;;;;;;;9.05;6.78;;;;;;;;;;4151181;34;20515;-62
2022/03/15 04:59:09;;;;;;;7.68;6.90;;;;;;;;;;4151484;34;20535;-62
2022/03/15 05:01:35;;;;;;;8.98;6.97;;;;;;;;;;4151062;34;20119;-62
2022/03/15 05:04:01;;;;;;;9.70;7.15;;;;;;;;;;4151407;34;20121;-62
2022/03/15 05:06:27;;;;;;;7.45;6.37;;;;;;;;;;4151510;34;20487;-61
2022/03/15 05:08:53;;;;;;;7.62;6.47;;;;;;;;;;4151462;34;20119;-61
2022/03/15 05:11:19;;;;;;;10.15;6.95;;;;;;;;;;4151222;34;20669;-61
2022/03/15 05:13:47;;;;;;;9.68;6.72;;;;;;;;;;4151806;34;20542;-61
2022/03/15 05:16:21;;;;;;;8.13;6.87;;;;;;;;;;4151524;34;20103;-62
2022/03/15 05:18:52;;;;;;;8.57;7.55;;;;;;;;;;4149723;34;20116;-62
2022/03/15 05:21:18;;;;;;;11.12;6.72;;;;;;;;;;4151056;34;20130;-62
2022/03/15 05:23:45;;;;;;;10.25;7.15;;;;;;;;;;4128823;34;20417;-61
2022/03/15 05:26:12;;;;;;;8.18;7.00;;;;;;;;;;4125176;34;20100;-61
2022/03/15 05:28:39;;;;;;;9.23;6.50;;;;;;;;;;4124970;34;20123;-64
2022/03/15 05:31:05;;;;;;;8.05;6.43;;;;;;;;;;4137435;34;20142;-64
2022/03/15 05:33:31;;;;;;;8.02;7.20;;;;;;;;;;4137350;34;20460;-62
2022/03/15 05:35:57;;;;;;;11.80;7.07;;;;;;;;;;4137513;34;20099;-63
2022/03/15 05:38:24;;;;;;;9.50;6.75;;;;;;;;;;4125206;34;20115;-64
2022/03/15 05:40:50;;;;;;;10.43;7.37;;;;;;;;;;4124997;34;20477;-63
2022/03/15 05:43:17;;;;;;;12.63;7.15;;;;;;;;;;4137274;34;20122;-65
2022/03/15 05:45:43;;;;;;;10.10;7.15;;;;;;;;;;4136130;34;20111;-65
2022/03/15 05:48:09;;;;;;;9.40;7.53;;;;;;;;;;4123961;34;20185;-65
2022/03/15 05:50:35;;;;;;;9.32;7.75;;;;;;;;;;4137392;34;20119;-65
2022/03/15 05:53:04;;;;;;;7.82;7.03;;;;;;;;;;4137198;34;20126;-65
2022/03/15 05:55:31;;;;;;;9.10;7.80;;;;;;;;;;4137088;34;20136;-65
2022/03/15 05:57:58;;;;;;;7.40;6.68;;;;;;;;;;4137180;34;20123;-65
2022/03/15 06:00:24;;;;;;;8.27;7.20;;;;;;;;;;4124781;34;20111;-65
2022/03/15 06:02:50;;;;;;;9.70;6.57;;;;;;;;;;4124875;34;20192;-65
2022/03/15 06:05:16;;;;;;;7.40;6.62;;;;;;;;;;4137222;34;20131;-67
2022/03/15 06:07:48;;;;;;;7.37;6.62;;;;;;;;;;4124741;34;20516;-64
2022/03/15 06:10:15;;;;;;;7.93;6.35;;;;;;;;;;4124647;34;20104;-64
2022/03/15 06:12:42;;;;;;;10.75;7.18;;;;;;;;;;4124748;34;20107;-63
2022/03/15 06:15:09;;;;;;;7.97;6.28;;;;;;;;;;4135800;34;20088;-63
2022/03/15 06:17:56;;;;;;;9.95;7.37;;;;;;;;;;4124645;34;20122;-64
2022/03/15 06:20:23;;;;;;;8.95;6.93;;;;;;;;;;4124895;34;20107;-63
2022/03/15 06:22:49;;;;;;;8.57;6.87;;;;;;;;;;4124173;34;20099;-63
2022/03/15 06:25:16;;;;;;;9.00;6.20;;;;;;;;;;4137057;34;20576;-62
2022/03/15 06:27:43;;;;;;;7.50;6.65;;;;;;;;;;4124761;34;20114;-61
2022/03/15 06:30:10;;;;;;;8.38;6.30;;;;;;;;;;4113748;34;20096;-62
2022/03/15 06:32:36;;;;;;;6.62;5.65;;;;;;;;;;4136990;34;20123;-61
2022/03/15 06:35:07;;;;;;;7.10;5.78;;;;;;;;;;4137305;34;20123;-61
2022/03/15 06:37:45;;;;;;;8.82;6.32;;;;;;;;;;4137061;34;20202;-60
2022/03/15 06:40:12;;;;;;;7.68;6.18;;;;;;;;;;4124476;34;20127;-61
2022/03/15 06:42:39;;;;;;;7.72;6.18;;;;;;;;;;4137120;34;20115;-61
2022/03/15 06:45:06;;;;;;;7.68;6.15;;;;;;;;;;4136671;34;20197;-61
2022/03/15 06:47:34;;;;;;;8.05;5.85;;;;;;;;;;4136822;34;20192;-61
2022/03/15 06:50:00;;;;;;;9.85;6.30;;;;;;;;;;4124412;34;20138;-62
2022/03/15 06:52:26;;;;;;;7.15;6.00;;;;;;;;;;4136692;34;20476;-61
2022/03/15 06:54:52;;;;;;;7.43;6.35;;;;;;;;;;4136739;34;20548;-62
2022/03/15 06:57:18;;;;;;;7.07;5.82;;;;;;;;;;4136743;34;20115;-62
2022/03/15 06:59:44;;;;;;;7.18;5.85;;;;;;;;;;4136490;34;20532;-62
2022/03/15 07:02:11;;;;;;;7.85;5.80;;;;;;;;;;4136770;34;20118;-61
2022/03/15 07:04:37;;;;;;;6.87;5.93;;;;;;;;;;4136655;34;20209;-59
2022/03/15 07:07:03;;;;;;;6.47;5.78;;;;;;;;;;4136611;34;20139;-59
2022/03/15 07:09:29;;;;;;;6.47;5.32;;;;;;;;;;4136503;34;20638;-59
2022/03/15 07:11:55;;;;;;;9.85;6.75;;;;;;;;;;4136600;34;20146;-59
2022/03/15 07:14:21;;;;;;;6.12;5.53;;;;;;;;;;4136566;34;20463;-59
2022/03/15 07:16:47;;;;;;;7.53;6.47;;;;;;;;;;4136431;34;20135;-60
2022/03/15 07:19:13;;;;;;;7.20;6.15;;;;;;;;;;4136684;34;20452;-60
2022/03/15 07:21:39;;;;;;;6.03;5.43;;;;;;;;;;4134931;34;20114;-61
2022/03/15 07:24:05;;;;;;;7.72;5.35;;;;;;;;;;4136530;34;20582;-60
2022/03/15 07:26:32;;;;;;;8.88;6.10;;;;;;;;;;4136505;34;20576;-60
2022/03/15 07:28:59;;;;;;;7.95;5.43;;;;;;;;;;4136360;34;20214;-61
2022/03/15 07:31:25;;;;;;;5.87;5.28;;;;;;;;;;4135254;34;20079;-60
2022/03/15 07:33:51;;;;;;;5.82;4.95;;;;;;;;;;4136375;34;20116;-60
2022/03/15 07:36:18;;;;;;;7.18;5.47;;;;;;;;;;4136314;34;20117;-60
2022/03/15 07:38:44;;;;;;;6.45;5.40;;;;;;;;;;4136306;34;20186;-60
2022/03/15 07:41:10;;;;;;;6.60;5.90;;;;;;;;;;4136352;34;20472;-60
2022/03/15 07:43:37;;;;;;;6.50;5.60;;;;;;;;;;4136296;34;20099;-60
2022/03/15 07:46:04;;;;;;;7.47;5.40;;;;;;;;;;4136441;34;20119;-59
2022/03/15 07:48:30;;;;;;;6.80;5.32;;;;;;;;;;4136302;34;20127;-58
2022/03/15 07:50:56;;;;;;;5.62;4.80;;;;;;;;;;4123760;34;20126;-60
2022/03/15 07:53:22;;;;;;;8.07;5.43;;;;;;;;;;4136280;34;20123;-60
2022/03/15 07:55:48;;;;;;;8.18;5.37;;;;;;;;;;4136350;34;20142;-62
2022/03/15 07:58:14;;;;;;;7.65;5.82;;;;;;;;;;4136206;34;20528;-62
2022/03/15 08:00:40;;;;;;;6.75;5.18;;;;;;;;;;4136292;34;20117;-63
2022/03/15 08:03:06;;;;;;;9.25;5.60;;;;;;;;;;4136172;34;20627;-63
2022/03/15 08:05:32;;;;;;;6.40;5.18;;;;;;;;;;4136184;34;20195;-64
2022/03/15 08:07:57;;;;;;;6.82;5.03;;;;;;;;;;4136306;34;20100;-63
2022/03/15 08:10:24;;;;;;;6.97;5.37;;;;;;;;;;4135793;34;20103;-61
2022/03/15 08:12:50;;;;;;;7.15;4.70;;;;;;;;;;4135929;34;20178;-62
2022/03/15 08:15:16;;;;;;;7.43;5.18;;;;;;;;;;4136411;34;20119;-60
2022/03/15 08:17:42;;;;;;;7.50;5.30;;;;;;;;;;4136035;34;20215;-62
2022/03/15 08:20:12;;;;;;;5.72;4.70;;;;;;;;;;4135851;34;20103;-62
2022/03/15 08:22:39;;;;;;;7.87;5.12;;;;;;;;;;4123815;34;20218;-63
2022/03/15 08:25:05;;;;;;;8.02;5.47;;;;;;;;;;4136224;34;20134;-63
2022/03/15 08:27:32;;;;;;;5.87;4.87;;;;;;;;;;4123679;34;20107;-62
2022/03/15 08:29:58;;;;;;;6.87;5.10;;;;;;;;;;4134471;34;20530;-62
2022/03/15 08:32:24;;;;;;;6.72;4.68;;;;;;;;;;4135728;34;20099;-63
2022/03/15 08:34:50;;;;;;;5.93;4.65;;;;;;;;;;4135772;34;20146;-63
2022/03/15 08:37:16;;;;;;;5.50;4.35;;;;;;;;;;4135839;34;20123;-62
2022/03/15 08:39:43;;;;;;;6.15;4.87;;;;;;;;;;4135799;34;20520;-62
2022/03/15 08:42:09;;;;;;;5.57;4.37;;;;;;;;;;4135838;34;20111;-62
2022/03/15 08:44:35;;;;;;;6.80;5.22;;;;;;;;;;4135660;34;20115;-62
2022/03/15 08:47:01;;;;;;;6.37;5.15;;;;;;;;;;4135676;34;20103;-62
2022/03/15 08:49:28;;;;;;;5.55;4.93;;;;;;;;;;4135528;34;20142;-62
2022/03/15 08:51:54;;;;;;;5.72;4.28;;;;;;;;;;4135559;34;20104;-62
2022/03/15 08:54:22;;;;;;;6.55;5.10;;;;;;;;;;4123433;34;20096;-62
2022/03/15 08:56:49;;;;;;;6.62;4.78;;;;;;;;;;4135435;34;20128;-62
2022/03/15 08:59:15;;;;;;;6.53;4.65;;;;;;;;;;4135581;34;20111;-62
2022/03/15 09:01:42;;;;;;;6.85;4.75;;;;;;;;;;4134014;34;20110;-63
2022/03/15 09:04:08;;;;;;;5.30;3.85;;;;;;;;;;4135540;34;20110;-62
2022/03/15 09:06:34;;;;;;;5.47;4.40;;;;;;;;;;4135433;34;20111;-63
2022/03/15 09:09:01;;;;;;;5.00;4.50;;;;;;;;;;4122609;34;20142;-62
2022/03/15 09:11:29;;;;;;;7.07;4.78;;;;;;;;;;4135359;34;20185;-62
2022/03/15 09:13:55;;;;;;;5.40;4.55;;;;;;;;;;4135235;34;20544;-61
2022/03/15 09:16:21;;;;;;;8.23;4.30;;;;;;;;;;4123148;34;20545;-65
2022/03/15 09:18:47;;;;;;;6.72;4.10;;;;;;;;;;4135015;34;20211;-61
2022/03/15 09:21:14;;;;;;;6.82;4.05;;;;;;;;;;4133786;34;20119;-62
2022/03/15 09:23:40;;;;;;;4.50;3.87;;;;;;;;;;4136948;34;20151;-62
2022/03/15 09:26:07;;;;;;;5.65;4.22;;;;;;;;;;4137451;34;20107;-60
2022/03/15 09:28:34;;;;;;;4.43;3.62;;;;;;;;;;4137239;34;20516;-63
2022/03/15 09:31:01;;;;;;;6.78;4.32;;;;;;;;;;4137454;34;20574;-62
2022/03/15 09:33:28;;;;;;;4.60;3.50;;;;;;;;;;4125128;34;20096;-62
2022/03/15 09:35:55;;;;;;;6.45;3.92;;;;;;;;;;4124788;34;20119;-61
2022/03/15 09:38:21;;;;;;;7.70;4.25;;;;;;;;;;4137188;34;20554;-62
2022/03/15 09:40:52;;;;;;;4.47;4.00;;;;;;;;;;4125090;34;20139;-63
2022/03/15 09:43:23;;;;;;;4.28;3.80;;;;;;;;;;4136543;34;20128;-63
2022/03/15 09:45:53;;;;;;;5.18;3.70;;;;;;;;;;4124881;34;20108;-62
2022/03/15 09:48:21;;;;;;;5.60;3.37;;;;;;;;;;4137547;34;20212;-64
2022/03/15 09:50:51;;;;;;;6.00;3.87;;;;;;;;;;4132262;34;20163;-63
2022/03/15 09:53:19;;;;;;;9.10;3.75;;;;;;;;;;4120320;34;20108;-65
2022/03/15 09:55:46;;;;;;;5.30;3.85;;;;;;;;;;4121017;34;20112;-65
2022/03/15 09:58:13;;;;;;;6.15;3.67;;;;;;;;;;4133631;34;20265;-63
2022/03/15 10:00:41;;;;;;;5.30;3.20;;;;;;;;;;4120859;34;20198;-64
2022/03/15 10:03:08;;;;;;;6.25;3.70;;;;;;;;;;4120825;34;20143;-62
2022/03/15 10:05:34;;;;;;;3.40;3.10;;;;;;;;;;4133072;34;20147;-61
2022/03/15 10:08:00;;;;;;;3.62;3.15;;;;;;;;;;4121449;34;20127;-63
2022/03/15 10:10:28;;;;;;;4.37;2.83;;;;;;;;;;4134977;34;20204;-60
2022/03/15 10:12:54;;;;;;;3.95;3.08;;;;;;;;;;4134010;34;20124;-61
2022/03/15 10:15:22;;;;;;;3.80;3.25;;;;;;;;;;4121513;34;20128;-60
2022/03/15 10:17:53;;;;;;;4.20;3.12;;;;;;;;;;4123019;34;20100;-63
2022/03/15 10:20:21;;;;;;;5.10;3.35;;;;;;;;;;4125021;34;20141;-63
2022/03/15 10:22:56;;;;;;;5.03;3.00;;;;;;;;;;4134701;34;20115;-63
2022/03/15 10:25:22;;;;;;;4.57;3.00;;;;;;;;;;4136240;34;20210;-64
2022/03/15 10:27:56;;;;;;;4.32;3.10;;;;;;;;;;4137459;34;20111;-63
2022/03/15 10:30:23;;;;;;;3.47;3.12;;;;;;;;;;4137142;34;20119;-63
2022/03/15 10:32:50;;;;;;;4.43;2.97;;;;;;;;;;4124472;34;20095;-63
2022/03/15 10:35:21;;;;;;;3.50;3.00;;;;;;;;;;4124025;34;20525;-65
2022/03/15 10:37:49;;;;;;;3.20;2.83;;;;;;;;;;4136877;34;20433;-64
2022/03/15 10:40:15;;;;;;;3.85;2.72;;;;;;;;;;4136954;34;20190;-62
2022/03/15 10:42:43;;;;;;;5.57;3.03;;;;;;;;;;4136768;34;20137;-62
2022/03/15 10:45:25;;;;;;;5.72;2.85;;;;;;;;;;4136847;34;20104;-61
2022/03/15 10:47:52;;;;;;;4.20;2.72;;;;;;;;;;4137063;34;20150;-61
2022/03/15 10:50:19;;;;;;;3.72;3.10;;;;;;;;;;4136671;34;20103;-62
2022/03/15 10:52:46;;;;;;;3.53;3.00;;;;;;;;;;4136888;34;20125;-60
2022/03/15 10:55:28;;;;;;;3.40;3.10;;;;;;;;;;4136636;34;20130;-61
2022/03/15 10:58:01;;;;;;;3.75;2.75;;;;;;;;;;4136719;34;20124;-62
2022/03/15 11:00:38;;;;;;;5.68;3.30;;;;;;;;;;4136549;34;20644;-63
2022/03/15 11:03:10;;;;;;;5.28;3.15;;;;;;;;;;4136556;34;20121;-62
2022/03/15 11:05:38;;;;;;;3.92;2.80;;;;;;;;;;4136921;34;20123;-61
2022/03/15 11:08:12;;;;;;;7.00;2.80;;;;;;;;;;4136580;34;20123;-61
2022/03/15 11:10:39;;;;;;;5.15;3.28;;;;;;;;;;4136434;34;20122;-62
2022/03/15 11:13:09;;;;;;;4.62;3.15;;;;;;;;;;4136018;34;20115;-62
2022/03/15 11:15:46;;;;;;;4.07;3.03;;;;;;;;;;4136873;34;20115;-62
2022/03/15 11:18:13;;;;;;;5.95;3.47;;;;;;;;;;4136802;34;20102;-62
2022/03/15 11:20:44;;;;;;;5.18;3.22;;;;;;;;;;4136543;34;20489;-63
2022/03/15 11:23:14;;;;;;;6.82;3.42;;;;;;;;;;4135047;34;20121;-62
2022/03/15 11:25:45;;;;;;;3.87;2.87;;;;;;;;;;4136427;34;20572;-63
2022/03/15 11:28:14;;;;;;;4.07;3.25;;;;;;;;;;4124236;34;20138;-63
2022/03/15 11:30:43;;;;;;;3.97;3.22;;;;;;;;;;4136285;34;20103;-62
2022/03/15 11:33:11;;;;;;;4.65;2.85;;;;;;;;;;4136674;34;20118;-60
2022/03/15 11:35:39;;;;;;;4.50;3.45;;;;;;;;;;4123771;34;20131;-61
2022/03/15 11:38:10;;;;;;;5.95;3.37;;;;;;;;;;4136373;34;20532;-61
2022/03/15 11:40:36;;;;;;;7.40;3.25;;;;;;;;;;4136447;34;20119;-62
2022/03/15 11:43:23;;;;;;;5.60;3.28;;;;;;;;;;4136310;34;20115;-62
2022/03/15 11:45:58;;;;;;;5.93;3.05;;;;;;;;;;4122925;34;20139;-61
2022/03/15 11:48:50;;;;;;;3.87;3.35;;;;;;;;;;4123944;34;20198;-61
2022/03/15 11:51:23;;;;;;;4.15;3.22;;;;;;;;;;4107045;34;20175;-61
2022/03/15 11:54:38;;;;;;;5.40;3.83;;;;;;;;;;4136352;34;20119;-62
2022/03/15 11:57:13;;;;;;;6.28;3.60;;;;;;;;;;4124085;34;20127;-62
2022/03/15 11:59:50;;;;;;;4.68;4.22;;;;;;;;;;4124188;34;20096;-60
2022/03/15 12:02:28;;;;;;;5.78;4.37;;;;;;;;;;4136053;34;20195;-61
2022/03/15 12:04:56;;;;;;;4.65;4.03;;;;;;;;;;4136146;34;20111;-62
2022/03/15 12:07:53;;;;;;;5.93;4.40;;;;;;;;;;4136001;34;20524;-61
2022/03/15 12:10:28;;;;;;;5.22;4.47;;;;;;;;;;4125569;34;20540;-61
2022/03/15 12:13:05;;;;;;;6.65;4.40;;;;;;;;;;4122469;34;20476;-59
2022/03/15 12:15:36;;;;;;;6.40;4.62;;;;;;;;;;4122548;34;20123;-61
2022/03/15 12:18:18;;;;;;;4.95;4.12;;;;;;;;;;4122419;34;20682;-62
2022/03/15 12:20:48;;;;;;;5.75;4.62;;;;;;;;;;4121129;34;20104;-61
2022/03/15 12:23:42;;;;;;;5.60;4.35;;;;;;;;;;4128022;34;20110;-61
2022/03/15 12:26:28;;;;;;;6.82;4.72;;;;;;;;;;4131092;34;20116;-63
2022/03/15 12:29:10;;;;;;;6.12;5.03;;;;;;;;;;4134162;34;20212;-61
2022/03/15 12:31:39;;;;;;;7.87;5.68;;;;;;;;;;4122842;34;20130;-61
2022/03/15 12:34:11;;;;;;;13.75;6.03;;;;;;;;;;4134203;34;20111;-61
2022/03/15 12:36:45;;;;;;;10.05;5.62;;;;;;;;;;4120861;34;20130;-62
2022/03/15 12:39:14;;;;;;;7.72;5.82;;;;;;;;;;4121810;34;20465;-61
2022/03/15 12:41:42;;;;;;;8.23;5.32;;;;;;;;;;4131453;34;20546;-62
2022/03/15 12:44:08;;;;;;;7.03;5.40;;;;;;;;;;4133807;34;20480;-60
2022/03/15 12:46:37;;;;;;;6.35;5.60;;;;;;;;;;4135279;34;20135;-65
2022/03/15 12:49:08;;;;;;;7.87;5.65;;;;;;;;;;4122982;34;20142;-61
2022/03/15 12:51:40;;;;;;;6.72;5.15;;;;;;;;;;4133840;34;20196;-60
2022/03/15 12:54:10;;;;;;;6.55;5.35;;;;;;;;;;4129570;34;20131;-62
2022/03/15 12:56:47;;;;;;;6.55;5.28;;;;;;;;;;4135444;34;20502;-59
2022/03/15 12:59:31;;;;;;;6.70;5.18;;;;;;;;;;4137667;34;20122;-60
2022/03/15 13:01:58;;;;;;;5.70;4.93;;;;;;;;;;4137113;34;20111;-61
2022/03/15 13:04:24;;;;;;;7.07;4.70;;;;;;;;;;4136190;34;20498;-62
2022/03/15 13:06:51;;;;;;;7.93;4.32;;;;;;;;;;4137356;34;20202;-62
2022/03/15 13:09:26;;;;;;;6.95;4.50;;;;;;;;;;4137286;34;20127;-61
2022/03/15 13:11:55;;;;;;;9.18;3.80;;;;;;;;;;4137090;34;20179;-63
2022/03/15 13:14:27;;;;;;;5.82;4.50;;;;;;;;;;4136761;34;20102;-61
2022/03/15 13:16:57;;;;;;;4.60;3.90;;;;;;;;;;4134690;34;20517;-61
2022/03/15 13:19:28;;;;;;;5.90;3.90;;;;;;;;;;4132206;34;20131;-63
2022/03/15 13:21:55;;;;;;;7.43;3.72;;;;;;;;;;4133304;34;20116;-60
2022/03/15 13:24:23;;;;;;;6.18;3.92;;;;;;;;;;4131239;34;20222;-64
2022/03/15 13:26:56;;;;;;;6.12;3.62;;;;;;;;;;4124432;34;20179;-62
2022/03/15 13:29:26;;;;;;;4.62;3.55;;;;;;;;;;4133710;34;20578;-62
2022/03/15 13:31:53;;;;;;;7.32;3.80;;;;;;;;;;4123844;34;20151;-59
2022/03/15 13:34:23;;;;;;;8.82;3.67;;;;;;;;;;4129306;34;20112;-62
2022/03/15 13:36:50;;;;;;;5.62;3.30;;;;;;;;;;4123868;34;20181;-62
2022/03/15 13:39:17;;;;;;;4.37;3.53;;;;;;;;;;4125713;34;20536;-62
2022/03/15 13:41:47;;;;;;;3.67;3.33;;;;;;;;;;4137226;34;20206;-63
2022/03/15 13:44:15;;;;;;;4.97;3.50;;;;;;;;;;4137001;34;20519;-61
2022/03/15 13:46:42;;;;;;;4.50;4.00;;;;;;;;;;4137273;34;20137;-63
2022/03/15 13:49:22;;;;;;;6.75;3.90;;;;;;;;;;4136676;34;20199;-62
2022/03/15 13:51:49;;;;;;;5.10;3.40;;;;;;;;;;4136768;34;20106;-61
2022/03/15 13:54:19;;;;;;;4.53;3.83;;;;;;;;;;4137128;34;20119;-63
2022/03/15 13:56:53;;;;;;;5.97;3.83;;;;;;;;;;4137212;34;20719;-63
2022/03/15 13:59:22;;;;;;;7.35;4.72;;;;;;;;;;4137127;34;20127;-64
2022/03/15 14:02:02;;;;;;;6.12;3.70;;;;;;;;;;4137093;34;20127;-62
2022/03/15 14:04:34;;;;;;;6.97;3.95;;;;;;;;;;4136494;34;20207;-61
2022/03/15 14:07:05;;;;;;;7.45;4.10;;;;;;;;;;4137001;34;20153;-63
2022/03/15 14:09:33;;;;;;;5.60;4.05;;;;;;;;;;4136105;34;20126;-61
2022/03/15 14:12:16;;;;;;;5.00;3.75;;;;;;;;;;4137300;34;20104;-63
2022/03/15 14:14:51;;;;;;;5.68;4.60;;;;;;;;;;4136789;34;20123;-61
2022/03/15 14:17:26;;;;;;;6.25;4.25;;;;;;;;;;4135399;34;20108;-61
2022/03/15 14:19:55;;;;;;;4.87;4.30;;;;;;;;;;4136886;34;20150;-62
2022/03/15 14:22:23;;;;;;;6.37;5.10;;;;;;;;;;4136734;34;20203;-61
2022/03/15 14:24:57;;;;;;;5.87;5.28;;;;;;;;;;4129873;34;20135;-61
2022/03/15 14:27:25;;;;;;;5.20;4.22;;;;;;;;;;4123137;34;20979;-62
2022/03/15 14:29:54;;;;;;;6.57;4.22;;;;;;;;;;4122234;34;20096;-62
2022/03/15 14:32:21;;;;;;;6.07;4.43;;;;;;;;;;4110947;34;20186;-62
2022/03/15 14:34:53;;;;;;;11.15;4.78;;;;;;;;;;4116032;34;20481;-60
2022/03/15 14:37:19;;;;;;;5.28;4.40;;;;;;;;;;4124112;34;20127;-65
2022/03/15 14:39:46;;;;;;;7.50;4.50;;;;;;;;;;4136469;34;20150;-67
2022/03/15 14:42:14;;;;;;;9.63;5.07;;;;;;;;;;4135324;34;20233;-60
2022/03/15 14:44:41;;;;;;;6.60;5.00;;;;;;;;;;4136626;34;20140;-61
2022/03/15 14:47:15;;;;;;;8.80;6.18;;;;;;;;;;4136483;34;20249;-61
2022/03/15 14:49:45;;;;;;;5.53;4.40;;;;;;;;;;4135067;34;20477;-61
2022/03/15 14:52:15;;;;;;;6.45;5.25;;;;;;;;;;4136154;34;20123;-61
2022/03/15 14:54:44;;;;;;;6.75;4.97;;;;;;;;;;4136202;34;20146;-60
2022/03/15 14:57:11;;;;;;;7.00;5.22;;;;;;;;;;4136395;34;20131;-60
2022/03/15 14:59:37;;;;;;;7.85;5.22;;;;;;;;;;4134886;34;20127;-60
2022/03/15 15:02:08;;;;;;;7.15;5.25;;;;;;;;;;4136340;34;20107;-61